Time;durP1;ratioP1;P1;durP2;ratioP2;P2;SDS_P1;SDS_P2;PMS_P1;PMS_P2;Temp;Humidity;BMP_temperature;BMP_pressure;BME280_temperature;BME280_humidity;BME280_pressure;Samples;Min_cycle;Max_cycle;Signal;HPM_P1;HPM_P2
2021/01/06 00:00:27;;;;;;;16.48;9.27;;;230.70;1715.20;;;;;;5095619;28;20027;-52
2021/01/06 00:02:53;;;;;;;15.27;9.13;;;230.80;1689.60;;;;;;5098270;28;20351;-52
2021/01/06 00:05:21;;;;;;;14.15;8.63;;;230.90;1664.00;;;;;;5111689;28;20042;-52
2021/01/06 00:07:47;;;;;;;12.52;9.20;;;230.90;1664.00;;;;;;5111424;28;20031;-53
2021/01/06 00:10:24;;;;;;;14.02;8.13;;;231.00;1664.00;;;;;;5113349;28;20107;-56
2021/01/06 00:12:50;;;;;;;12.75;9.07;;;231.10;1664.00;;;;;;5110826;28;20031;-51
2021/01/06 00:15:23;;;;;;;16.50;8.45;;;231.20;1638.40;;;;;;5111798;28;20019;-52
2021/01/06 00:17:48;;;;;;;20.00;9.75;;;231.10;1638.40;;;;;;5109612;28;20054;-52
2021/01/06 00:20:15;;;;;;;16.35;9.18;;;231.20;1638.40;;;;;;5112410;28;20047;-58
2021/01/06 00:22:41;;;;;;;12.13;8.07;;;231.20;1612.80;;;;;;5111327;28;20028;-53
2021/01/06 00:25:12;;;;;;;12.55;8.35;;;231.20;1638.40;;;;;;5113132;28;20020;-53
2021/01/06 00:27:38;;;;;;;13.18;8.77;;;231.20;1638.40;;;;;;5093784;28;20038;-53
2021/01/06 00:30:19;;;;;;;11.50;8.05;;;231.30;1612.80;;;;;;5111226;28;20086;-53
2021/01/06 00:32:45;;;;;;;11.70;7.32;;;231.30;1612.80;;;;;;5109981;28;20031;-53
2021/01/06 00:35:11;;;;;;;12.43;8.52;;;231.30;1638.40;;;;;;5111808;28;20057;-52
2021/01/06 00:37:36;;;;;;;13.15;8.50;;;256.00;1612.80;;;;;;5112278;28;20016;-53
2021/01/06 00:40:03;;;;;;;15.32;7.78;;;256.00;1612.80;;;;;;5111239;28;20039;-52
2021/01/06 00:42:28;;;;;;;16.15;8.80;;;256.00;1612.80;;;;;;5112948;28;20016;-58
2021/01/06 00:44:54;;;;;;;13.45;8.60;;;256.00;1612.80;;;;;;5113078;28;20022;-53
2021/01/06 00:47:19;;;;;;;13.82;9.27;;;256.00;1587.20;;;;;;5110931;28;20019;-52
2021/01/06 00:49:45;;;;;;;14.00;8.90;;;256.00;1612.80;;;;;;5109633;28;20129;-53
2021/01/06 00:52:11;;;;;;;11.43;7.80;;;256.10;1612.80;;;;;;5110678;28;20469;-56
2021/01/06 00:54:38;;;;;;;14.50;8.93;;;256.10;1587.20;;;;;;5111990;28;20054;-54
2021/01/06 00:57:04;;;;;;;13.90;8.05;;;256.00;1587.20;;;;;;5109374;28;20525;-52
2021/01/06 00:59:30;;;;;;;12.10;8.25;;;256.00;1612.80;;;;;;5110256;28;20220;-56
2021/01/06 01:01:55;;;;;;;12.35;8.45;;;256.00;1587.20;;;;;;5111174;28;20031;-53
2021/01/06 01:04:21;;;;;;;12.60;8.57;;;256.00;1612.80;;;;;;5109893;28;20058;-56
2021/01/06 01:06:47;;;;;;;11.27;7.63;;;256.00;1587.20;;;;;;5110201;28;20465;-56
2021/01/06 01:09:12;;;;;;;12.27;7.97;;;256.00;1612.80;;;;;;5109152;28;20081;-53
2021/01/06 01:11:39;;;;;;;12.25;8.63;;;256.00;1587.20;;;;;;5112610;28;20019;-52
2021/01/06 01:14:05;;;;;;;12.40;7.93;;;256.10;1587.20;;;;;;5108566;28;20473;-53
2021/01/06 01:16:31;;;;;;;10.00;7.35;;;256.20;1587.20;;;;;;5110057;28;20030;-54
2021/01/06 01:18:57;;;;;;;13.32;8.02;;;256.10;1587.20;;;;;;5110878;28;20020;-52
2021/01/06 01:21:23;;;;;;;11.40;7.65;;;256.20;1587.20;;;;;;5109958;28;20022;-52
2021/01/06 01:23:48;;;;;;;9.73;7.25;;;256.20;1561.60;;;;;;5106357;28;20019;-53
2021/01/06 01:26:14;;;;;;;11.35;6.55;;;256.20;1561.60;;;;;;5111996;28;20030;-53
2021/01/06 01:28:40;;;;;;;10.55;6.88;;;256.20;1561.60;;;;;;5110728;28;20036;-52
2021/01/06 01:31:06;;;;;;;11.35;6.43;;;256.30;1561.60;;;;;;5110527;28;20473;-54
2021/01/06 01:33:33;;;;;;;10.43;7.13;;;256.30;1536.00;;;;;;5112632;28;20027;-54
2021/01/06 01:35:59;;;;;;;9.55;6.68;;;256.40;1536.00;;;;;;5109555;28;20019;-54
2021/01/06 01:38:27;;;;;;;14.02;6.88;;;256.40;1536.00;;;;;;5109215;28;20481;-55
2021/01/06 01:41:01;;;;;;;8.70;5.80;;;256.40;1536.00;;;;;;5111966;28;20461;-54
2021/01/06 01:43:27;;;;;;;9.25;6.28;;;256.40;1510.40;;;;;;5111252;28;20381;-55
2021/01/06 01:45:53;;;;;;;11.40;6.45;;;256.30;1510.40;;;;;;5113658;28;20458;-59
2021/01/06 01:48:21;;;;;;;10.20;6.03;;;256.30;1536.00;;;;;;5094927;28;20032;-55
2021/01/06 01:50:48;;;;;;;8.05;5.65;;;256.30;1510.40;;;;;;5094446;28;20358;-54
2021/01/06 01:53:19;;;;;;;9.82;6.68;;;256.10;1536.00;;;;;;5092702;28;20511;-54
2021/01/06 01:55:47;;;;;;;8.55;5.80;;;256.20;1536.00;;;;;;5092543;28;20027;-54
2021/01/06 01:58:19;;;;;;;9.63;6.60;;;256.30;1536.00;;;;;;5106403;28;20047;-54
2021/01/06 02:00:46;;;;;;;10.70;6.50;;;256.10;1536.00;;;;;;5092718;28;20028;-53
2021/01/06 02:03:18;;;;;;;11.70;6.38;;;256.10;1536.00;;;;;;5092132;28;20028;-54
2021/01/06 02:05:55;;;;;;;9.45;6.22;;;256.10;1561.60;;;;;;5092672;28;20031;-55
2021/01/06 02:08:50;;;;;;;11.80;6.47;;;256.00;1536.00;;;;;;5073436;28;20044;-54
2021/01/06 02:11:21;;;;;;;10.68;6.93;;;231.30;1561.60;;;;;;5030473;28;20424;-54
2021/01/06 02:14:18;;;;;;;10.15;6.68;;;231.20;1561.60;;;;;;5030039;28;20041;-56
2021/01/06 02:16:52;;;;;;;11.60;6.65;;;231.20;1561.60;;;;;;5009841;28;20038;-53
2021/01/06 02:19:21;;;;;;;9.57;6.38;;;231.00;1587.20;;;;;;5010760;28;20037;-54
2021/01/06 02:21:47;;;;;;;12.27;6.90;;;231.00;1587.20;;;;;;5010831;28;20029;-54
2021/01/06 02:24:13;;;;;;;11.38;6.15;;;230.90;1587.20;;;;;;5012222;28;20094;-54
2021/01/06 02:26:40;;;;;;;10.30;6.50;;;230.90;1587.20;;;;;;5015965;28;20026;-53
2021/01/06 02:29:05;;;;;;;10.15;5.97;;;230.80;1587.20;;;;;;5015750;28;20641;-54
2021/01/06 02:31:31;;;;;;;10.10;6.32;;;230.80;1612.80;;;;;;5014894;28;20022;-53
2021/01/06 02:33:57;;;;;;;10.13;5.78;;;230.70;1612.80;;;;;;5013599;28;20042;-57
2021/01/06 02:36:23;;;;;;;9.50;5.95;;;230.70;1612.80;;;;;;5013960;28;20061;-53
2021/01/06 02:38:49;;;;;;;8.93;6.18;;;230.60;1612.80;;;;;;5014044;28;20567;-53
2021/01/06 02:41:15;;;;;;;9.05;5.95;;;230.60;1612.80;;;;;;5013714;28;20042;-55
2021/01/06 02:43:42;;;;;;;9.02;5.88;;;230.60;1612.80;;;;;;5013726;28;20030;-53
2021/01/06 02:46:09;;;;;;;8.73;5.72;;;230.60;1612.80;;;;;;5013664;28;20467;-58
2021/01/06 02:48:36;;;;;;;9.80;5.45;;;230.70;1612.80;;;;;;5038564;28;20080;-54
2021/01/06 02:51:08;;;;;;;9.73;5.40;;;230.70;1587.20;;;;;;5036689;28;20391;-54
2021/01/06 02:53:51;;;;;;;8.23;5.22;;;230.80;1587.20;;;;;;5072193;28;20039;-54
2021/01/06 02:56:20;;;;;;;8.27;5.05;;;230.80;1561.60;;;;;;5095380;28;20066;-53
2021/01/06 02:58:47;;;;;;;10.05;4.75;;;230.80;1587.20;;;;;;5095788;28;20359;-52
2021/01/06 03:01:17;;;;;;;8.20;5.07;;;230.90;1561.60;;;;;;5095597;28;20056;-53
2021/01/06 03:03:45;;;;;;;13.50;5.90;;;231.00;1561.60;;;;;;5095333;28;20118;-53
2021/01/06 03:06:36;;;;;;;8.13;5.33;;;231.00;1561.60;;;;;;5095506;28;20020;-57
2021/01/06 03:09:05;;;;;;;7.95;5.07;;;231.10;1536.00;;;;;;5080103;28;20044;-51
2021/01/06 03:11:31;;;;;;;8.68;5.03;;;231.00;1561.60;;;;;;5105127;28;20530;-52
2021/01/06 03:13:57;;;;;;;8.95;4.57;;;231.10;1536.00;;;;;;5095544;28;20028;-55
2021/01/06 03:16:23;;;;;;;7.03;4.25;;;231.10;1536.00;;;;;;5095508;28;20024;-53
2021/01/06 03:18:48;;;;;;;8.82;4.82;;;231.10;1510.40;;;;;;5094862;28;20020;-52
2021/01/06 03:21:16;;;;;;;9.35;4.50;;;231.10;1536.00;;;;;;5094361;28;20035;-53
2021/01/06 03:23:47;;;;;;;8.93;5.03;;;231.20;1536.00;;;;;;5095692;28;20027;-53
2021/01/06 03:26:18;;;;;;;6.47;4.68;;;231.20;1536.00;;;;;;5099783;28;20020;-52
2021/01/06 03:28:46;;;;;;;10.25;5.07;;;231.20;1536.00;;;;;;5114644;28;20511;-53
2021/01/06 03:31:18;;;;;;;8.82;4.32;;;231.20;1536.00;;;;;;5102545;28;20373;-55
2021/01/06 03:34:15;;;;;;;6.72;4.38;;;231.20;1536.00;;;;;;5115570;28;20378;-54
2021/01/06 03:36:44;;;;;;;8.05;5.03;;;231.20;1510.40;;;;;;5115160;28;20019;-56
2021/01/06 03:39:17;;;;;;;6.72;4.50;;;231.20;1536.00;;;;;;5098050;28;20028;-52
2021/01/06 03:41:43;;;;;;;5.18;4.30;;;231.20;1536.00;;;;;;5094771;28;20016;-52
2021/01/06 03:44:11;;;;;;;5.97;4.25;;;231.20;1510.40;;;;;;5094948;28;20500;-53
2021/01/06 03:47:05;;;;;;;8.98;4.50;;;231.20;1536.00;;;;;;5094624;28;20027;-52
2021/01/06 03:49:31;;;;;;;7.38;4.72;;;231.20;1536.00;;;;;;5094500;28;20044;-53
2021/01/06 03:52:04;;;;;;;8.45;4.53;;;231.20;1536.00;;;;;;5094779;28;20050;-54
2021/01/06 03:54:55;;;;;;;7.32;4.00;;;231.30;1510.40;;;;;;5094502;28;20020;-53
2021/01/06 03:57:22;;;;;;;10.52;4.35;;;231.30;1536.00;;;;;;5094540;28;20016;-52
2021/01/06 03:59:50;;;;;;;7.20;4.40;;;256.00;1510.40;;;;;;5097357;28;20381;-53
2021/01/06 04:02:40;;;;;;;9.48;5.35;;;231.30;1510.40;;;;;;5100191;28;20154;-53
2021/01/06 04:05:13;;;;;;;6.60;3.72;;;231.20;1536.00;;;;;;5094169;28;20545;-52
2021/01/06 04:07:53;;;;;;;6.43;3.65;;;231.20;1510.40;;;;;;5094170;28;20024;-53
2021/01/06 04:10:26;;;;;;;6.70;3.95;;;231.20;1510.40;;;;;;5094946;28;20024;-54
2021/01/06 04:12:52;;;;;;;5.85;4.13;;;231.20;1510.40;;;;;;5093855;28;20111;-54
2021/01/06 04:15:18;;;;;;;4.80;3.33;;;231.20;1510.40;;;;;;5094179;28;20114;-55
2021/01/06 04:17:47;;;;;;;6.93;3.70;;;231.10;1536.00;;;;;;5094241;28;20028;-53
2021/01/06 04:20:31;;;;;;;4.75;3.28;;;231.10;1510.40;;;;;;5094087;28;20031;-53
2021/01/06 04:22:59;;;;;;;6.43;3.63;;;231.20;1510.40;;;;;;5094204;28;20012;-53
2021/01/06 04:25:29;;;;;;;5.32;3.45;;;231.20;1510.40;;;;;;5075764;28;20028;-53
2021/01/06 04:28:03;;;;;;;7.40;3.50;;;231.10;1536.00;;;;;;5093838;28;20035;-52
2021/01/06 04:30:36;;;;;;;6.68;3.40;;;231.10;1536.00;;;;;;5093973;28;20371;-54
2021/01/06 04:33:06;;;;;;;5.07;3.28;;;231.20;1536.00;;;;;;5093962;28;20158;-52
2021/01/06 04:35:32;;;;;;;5.40;3.50;;;231.10;1536.00;;;;;;5093711;28;20062;-52
2021/01/06 04:37:59;;;;;;;4.53;3.03;;;231.00;1536.00;;;;;;5094408;28;20024;-53
2021/01/06 04:40:33;;;;;;;8.60;4.20;;;231.00;1536.00;;;;;;5093601;28;20027;-56
2021/01/06 04:43:05;;;;;;;7.40;4.28;;;230.90;1561.60;;;;;;5093816;28;20146;-53
2021/01/06 04:45:35;;;;;;;6.93;4.30;;;230.90;1561.60;;;;;;5093683;28;20059;-53
2021/01/06 04:48:32;;;;;;;8.88;4.18;;;230.90;1561.60;;;;;;5093368;28;20043;-52
2021/01/06 04:51:05;;;;;;;5.25;3.17;;;231.00;1536.00;;;;;;5093441;28;20020;-57
2021/01/06 04:53:53;;;;;;;4.28;3.03;;;231.00;1536.00;;;;;;5093320;28;20024;-52
2021/01/06 04:57:12;;;;;;;6.80;3.80;;;231.10;1510.40;;;;;;5093509;28;20096;-52
2021/01/06 05:00:26;;;;;;;8.15;3.78;;;231.10;1510.40;;;;;;5011660;28;20357;-52
2021/01/06 05:03:31;;;;;;;6.50;3.97;;;231.10;1536.00;;;;;;4933645;28;20096;-52
2021/01/06 05:06:39;;;;;;;5.75;3.80;;;231.20;1510.40;;;;;;4930393;29;20502;-54
2021/01/06 05:09:14;;;;;;;9.07;4.10;;;231.10;1536.00;;;;;;4895963;29;20055;-53
2021/01/06 05:11:57;;;;;;;6.13;4.57;;;231.20;1536.00;;;;;;4895496;29;20048;-54
2021/01/06 05:14:29;;;;;;;6.93;4.10;;;231.20;1536.00;;;;;;4896066;29;20103;-52
2021/01/06 05:16:56;;;;;;;9.27;4.70;;;231.20;1536.00;;;;;;4883595;29;20107;-53
2021/01/06 05:19:23;;;;;;;7.93;4.93;;;231.00;1561.60;;;;;;4892466;29;20068;-53
2021/01/06 05:21:51;;;;;;;7.65;4.82;;;231.00;1561.60;;;;;;4894657;29;20036;-57
2021/01/06 05:24:31;;;;;;;7.00;4.68;;;230.90;1561.60;;;;;;4895856;29;20135;-52
2021/01/06 05:27:16;;;;;;;9.48;4.55;;;230.80;1587.20;;;;;;4895347;29;20132;-53
2021/01/06 05:29:44;;;;;;;8.60;4.28;;;230.80;1561.60;;;;;;4895758;29;20041;-53
2021/01/06 05:32:18;;;;;;;7.50;4.28;;;230.90;1561.60;;;;;;4896900;29;20043;-52
2021/01/06 05:34:48;;;;;;;8.60;4.25;;;230.80;1561.60;;;;;;4917269;29;20439;-53
2021/01/06 05:37:16;;;;;;;8.40;4.78;;;230.70;1587.20;;;;;;4933233;29;20044;-53
2021/01/06 05:39:42;;;;;;;7.47;4.28;;;230.80;1587.20;;;;;;5008452;28;20072;-53
2021/01/06 05:42:15;;;;;;;6.65;3.95;;;230.70;1587.20;;;;;;5030452;28;20057;-53
2021/01/06 05:44:41;;;;;;;6.13;4.43;;;230.70;1587.20;;;;;;5035937;28;20039;-53
2021/01/06 05:47:18;;;;;;;6.70;3.80;;;230.70;1587.20;;;;;;5089350;28;20440;-53
2021/01/06 05:49:44;;;;;;;6.55;3.95;;;230.70;1587.20;;;;;;5093603;28;20048;-53
2021/01/06 05:52:14;;;;;;;7.07;3.90;;;230.70;1587.20;;;;;;5092971;28;20027;-55
2021/01/06 05:54:45;;;;;;;7.25;3.58;;;230.70;1561.60;;;;;;5093487;28;20020;-53
2021/01/06 05:57:38;;;;;;;8.32;4.57;;;230.70;1561.60;;;;;;5092335;28;20478;-53
2021/01/06 06:00:23;;;;;;;6.47;4.15;;;230.70;1561.60;;;;;;5095314;28;20020;-53
2021/01/06 06:02:59;;;;;;;6.88;4.03;;;230.70;1587.20;;;;;;5096392;28;20035;-56
2021/01/06 06:06:04;;;;;;;12.40;3.78;;;230.70;1587.20;;;;;;5096907;28;20105;-53
2021/01/06 06:09:03;;;;;;;5.80;4.00;;;230.70;1587.20;;;;;;4994597;28;20124;-53
2021/01/06 06:12:00;;;;;;;9.95;4.22;;;230.80;1587.20;;;;;;4994995;28;20084;-52
2021/01/06 06:14:45;;;;;;;11.10;4.60;;;230.80;1587.20;;;;;;4994963;28;20076;-54
2021/01/06 06:17:41;;;;;;;5.47;3.38;;;230.80;1587.20;;;;;;4936866;29;20149;-55
2021/01/06 06:20:28;;;;;;;6.07;3.67;;;230.80;1561.60;;;;;;4933477;29;20551;-53
2021/01/06 06:23:13;;;;;;;6.25;3.92;;;230.90;1587.20;;;;;;4931029;29;20050;-52
2021/01/06 06:26:08;;;;;;;9.23;4.63;;;231.00;1561.60;;;;;;4936916;29;20035;-53
2021/01/06 06:29:12;;;;;;;9.88;3.60;;;231.00;1561.60;;;;;;4929701;29;20489;-52
2021/01/06 06:31:44;;;;;;;9.02;4.22;;;231.10;1536.00;;;;;;4879776;29;20511;-52
2021/01/06 06:34:12;;;;;;;11.27;4.88;;;231.20;1536.00;;;;;;4880159;29;20049;-58
2021/01/06 06:36:43;;;;;;;9.02;4.88;;;231.20;1536.00;;;;;;4879412;29;20041;-52
2021/01/06 06:39:29;;;;;;;7.50;4.90;;;256.00;1536.00;;;;;;4880063;29;20495;-52
2021/01/06 06:42:10;;;;;;;9.15;4.85;;;256.10;1536.00;;;;;;4879731;29;20900;-53
2021/01/06 06:45:19;;;;;;;9.10;4.88;;;256.20;1510.40;;;;;;4900844;29;20039;-54
2021/01/06 06:48:10;;;;;;;5.63;4.03;;;256.40;1510.40;;;;;;4906332;29;20040;-53
2021/01/06 06:50:53;;;;;;;5.55;3.97;;;256.50;1484.80;;;;;;4917288;29;20044;-62
2021/01/06 06:53:53;;;;;;;7.18;4.25;;;256.70;1484.80;;;;;;4920878;29;20025;-52
2021/01/06 06:56:25;;;;;;;6.90;4.10;;;256.70;1484.80;;;;;;4955277;28;20035;-52
2021/01/06 06:58:55;;;;;;;10.30;4.15;;;256.90;1459.20;;;;;;4955488;28;20027;-53
2021/01/06 07:01:31;;;;;;;5.93;3.95;;;281.60;1484.80;;;;;;4955336;28;20398;-51
2021/01/06 07:04:00;;;;;;;8.75;4.35;;;281.70;1459.20;;;;;;4954945;28;20054;-55
2021/01/06 07:06:27;;;;;;;6.88;4.32;;;281.90;1459.20;;;;;;4954776;28;20130;-56
2021/01/06 07:08:56;;;;;;;5.30;3.90;;;281.80;1459.20;;;;;;4941398;28;20040;-54
2021/01/06 07:11:28;;;;;;;6.35;4.60;;;281.80;1459.20;;;;;;4935529;29;20035;-53
2021/01/06 07:14:03;;;;;;;6.13;4.35;;;281.90;1433.60;;;;;;4935728;29;20478;-55
2021/01/06 07:16:40;;;;;;;6.57;3.95;;;282.00;1459.20;;;;;;4941933;28;20034;-52
2021/01/06 07:19:18;;;;;;;7.60;4.25;;;281.90;1433.60;;;;;;4955173;28;20162;-56
2021/01/06 07:21:50;;;;;;;13.80;5.40;;;282.00;1459.20;;;;;;4954507;28;20031;-53
2021/01/06 07:24:18;;;;;;;6.75;4.60;;;282.00;1433.60;;;;;;5003096;28;20041;-62
2021/01/06 07:27:00;;;;;;;6.93;4.93;;;282.00;1459.20;;;;;;5013084;28;20400;-53
2021/01/06 07:29:32;;;;;;;8.40;4.72;;;282.00;1459.20;;;;;;5013034;28;20045;-54
2021/01/06 07:32:09;;;;;;;7.88;4.88;;;282.10;1433.60;;;;;;5020918;28;20025;-53
2021/01/06 07:34:50;;;;;;;6.20;4.20;;;282.20;1408.00;;;;;;5067341;28;20047;-54
2021/01/06 07:37:36;;;;;;;9.45;5.25;;;282.30;1433.60;;;;;;5074467;28;20078;-57
2021/01/06 07:40:07;;;;;;;7.30;5.78;;;282.40;1408.00;;;;;;5074883;28;20082;-57
2021/01/06 07:42:39;;;;;;;9.00;5.40;;;282.40;1408.00;;;;;;5074639;28;20052;-54
2021/01/06 07:45:20;;;;;;;12.60;5.65;;;282.30;1408.00;;;;;;5074599;28;20043;-54
2021/01/06 07:48:04;;;;;;;8.82;5.53;;;282.30;1408.00;;;;;;5074173;28;20032;-54
2021/01/06 07:50:34;;;;;;;11.73;6.40;;;282.40;1408.00;;;;;;5074644;28;20032;-62
2021/01/06 07:53:13;;;;;;;10.75;5.85;;;282.50;1408.00;;;;;;5074209;28;20027;-53
2021/01/06 07:55:58;;;;;;;12.85;6.03;;;282.50;1433.60;;;;;;5074296;28;20043;-54
2021/01/06 07:58:32;;;;;;;13.40;6.18;;;307.20;1433.60;;;;;;5074444;28;20021;-58
2021/01/06 08:01:03;;;;;;;8.18;5.32;;;307.20;1433.60;;;;;;5074713;28;20024;-60
2021/01/06 08:03:40;;;;;;;8.85;4.65;;;282.50;1408.00;;;;;;5077644;28;20036;-54
2021/01/06 08:06:05;;;;;;;8.43;5.35;;;307.20;1433.60;;;;;;5094378;28;20032;-57
2021/01/06 08:08:40;;;;;;;10.85;6.25;;;307.20;1433.60;;;;;;5094151;28;20118;-53
2021/01/06 08:11:09;;;;;;;7.55;5.70;;;307.20;1408.00;;;;;;5094418;28;20020;-55
2021/01/06 08:13:48;;;;;;;10.07;5.30;;;307.30;1408.00;;;;;;5094262;28;20052;-53
2021/01/06 08:16:21;;;;;;;6.18;4.53;;;307.50;1408.00;;;;;;5094031;28;20024;-53
2021/01/06 08:19:17;;;;;;;6.63;4.18;;;307.60;1408.00;;;;;;5094309;28;20440;-52
2021/01/06 08:21:46;;;;;;;8.15;5.03;;;307.70;1382.40;;;;;;5093261;28;20469;-53
2021/01/06 08:24:15;;;;;;;8.43;5.25;;;307.70;1382.40;;;;;;5094057;28;20115;-55
2021/01/06 08:27:01;;;;;;;6.93;4.70;;;307.80;1382.40;;;;;;5093632;28;20020;-52
2021/01/06 08:29:31;;;;;;;9.25;4.82;;;307.80;1382.40;;;;;;5094034;28;20482;-52
2021/01/06 08:32:22;;;;;;;8.80;5.15;;;307.80;1382.40;;;;;;5093731;28;20028;-53
2021/01/06 08:35:04;;;;;;;7.90;5.50;;;307.90;1382.40;;;;;;5094198;28;20369;-54
2021/01/06 08:37:33;;;;;;;10.13;6.05;;;308.00;1356.80;;;;;;5093604;28;20107;-58
2021/01/06 08:40:02;;;;;;;9.43;4.80;;;308.00;1382.40;;;;;;5093970;28;20150;-52
2021/01/06 08:42:44;;;;;;;8.75;5.40;;;308.10;1382.40;;;;;;5093773;28;20065;-52
2021/01/06 08:45:21;;;;;;;6.60;5.55;;;332.80;1382.40;;;;;;5094336;28;20118;-53
2021/01/06 08:47:48;;;;;;;7.85;4.97;;;333.10;1356.80;;;;;;5093612;28;20391;-54
2021/01/06 08:50:13;;;;;;;7.80;5.15;;;333.20;1356.80;;;;;;5093752;28;20032;-52
2021/01/06 08:52:39;;;;;;;7.55;4.45;;;333.20;1331.20;;;;;;5095814;28;20012;-53
2021/01/06 08:55:23;;;;;;;8.52;4.47;;;333.40;1331.20;;;;;;5093610;28;20119;-52
2021/01/06 08:58:04;;;;;;;7.97;5.50;;;333.60;1305.60;;;;;;5090503;28;20024;-56
2021/01/06 09:00:33;;;;;;;7.75;5.78;;;333.60;1305.60;;;;;;5096986;28;20393;-53
2021/01/06 09:03:07;;;;;;;5.65;4.40;;;333.70;1280.00;;;;;;5095027;28;20045;-52
2021/01/06 09:06:03;;;;;;;10.05;5.93;;;358.40;1305.60;;;;;;5093196;28;20047;-55
2021/01/06 09:08:32;;;;;;;8.52;5.60;;;358.50;1305.60;;;;;;5092703;28;20040;-52
2021/01/06 09:11:00;;;;;;;9.43;5.47;;;358.40;1280.00;;;;;;5093602;28;20424;-52
2021/01/06 09:13:30;;;;;;;;;;;358.40;1305.60;;;;;;5093500;28;20043;-65
2021/01/06 09:16:18;;;;;;;10.10;5.97;;;358.40;1305.60;;;;;;5092999;28;19961;-57
2021/01/06 09:19:01;;;;;;;10.68;5.88;;;333.70;1305.60;;;;;;5093191;28;20047;-52
2021/01/06 09:21:32;;;;;;;10.68;6.30;;;333.70;1305.60;;;;;;5092857;28;20428;-52
2021/01/06 09:24:25;;;;;;;9.20;6.22;;;333.70;1331.20;;;;;;5091932;28;20115;-53
2021/01/06 09:27:02;;;;;;;9.18;6.15;;;333.50;1331.20;;;;;;5078718;28;20020;-53
2021/01/06 09:29:29;;;;;;;13.00;5.85;;;333.40;1331.20;;;;;;5093054;28;20044;-53
2021/01/06 09:32:01;;;;;;;11.57;5.85;;;333.50;1331.20;;;;;;5093016;28;20020;-53
2021/01/06 09:34:39;;;;;;;10.77;5.90;;;333.60;1305.60;;;;;;5092831;28;20078;-52
2021/01/06 09:37:07;;;;;;;11.18;6.90;;;333.50;1305.60;;;;;;5092813;28;20042;-52
2021/01/06 09:39:34;;;;;;;7.60;5.82;;;333.30;1331.20;;;;;;5092766;28;20035;-53
2021/01/06 09:42:01;;;;;;;11.63;6.95;;;333.20;1331.20;;;;;;5099634;28;20431;-53
2021/01/06 09:44:31;;;;;;;11.50;7.32;;;333.10;1356.80;;;;;;5111832;28;20436;-53
2021/01/06 09:47:27;;;;;;;14.35;9.50;;;333.20;1331.20;;;;;;5092443;28;20094;-56
2021/01/06 09:49:58;;;;;;;15.02;9.73;;;332.80;1408.00;;;;;;5089702;28;20593;-53
2021/01/06 09:52:27;;;;;;;19.73;11.07;;;308.00;1433.60;;;;;;5092357;28;20043;-54
2021/01/06 09:54:56;;;;;;;17.55;10.13;;;307.90;1433.60;;;;;;5092369;28;20016;-53
2021/01/06 09:57:23;;;;;;;18.55;10.30;;;307.60;1484.80;;;;;;5092105;28;20056;-52
2021/01/06 09:59:54;;;;;;;18.35;11.23;;;307.60;1484.80;;;;;;5105050;28;20106;-52
2021/01/06 10:02:29;;;;;;;15.80;11.57;;;307.50;1510.40;;;;;;5092368;28;20032;-52
2021/01/06 10:05:16;;;;;;;18.88;11.88;;;307.70;1484.80;;;;;;5091098;28;20052;-52
2021/01/06 10:08:18;;;;;;;21.70;13.25;;;307.60;1510.40;;;;;;5087503;28;20511;-52
2021/01/06 10:10:47;;;;;;;19.48;12.98;;;307.50;1536.00;;;;;;5092231;28;20035;-51
2021/01/06 10:13:44;;;;;;;21.63;14.02;;;307.50;1561.60;;;;;;5091579;28;20020;-56
2021/01/06 10:16:33;;;;;;;23.27;14.20;;;307.50;1561.60;;;;;;5082145;28;20047;-52
2021/01/06 10:19:17;;;;;;;26.02;14.57;;;307.40;1587.20;;;;;;5092446;28;20016;-52
2021/01/06 10:22:08;;;;;;;23.90;14.05;;;307.50;1561.60;;;;;;5091134;28;20036;-51
2021/01/06 10:25:09;;;;;;;20.38;12.95;;;307.60;1561.60;;;;;;5080896;28;20032;-52
2021/01/06 10:27:41;;;;;;;23.45;15.32;;;307.50;1536.00;;;;;;5076093;28;20083;-52
2021/01/06 10:30:13;;;;;;;26.15;15.38;;;307.70;1536.00;;;;;;5092413;28;20039;-52
2021/01/06 10:32:50;;;;;;;21.35;13.60;;;307.70;1510.40;;;;;;5091869;28;20040;-57
2021/01/06 10:35:37;;;;;;;24.73;15.20;;;307.90;1484.80;;;;;;5092197;28;20426;-58
2021/01/06 10:38:21;;;;;;;21.08;13.10;;;308.00;1536.00;;;;;;5091187;28;20032;-52
2021/01/06 10:40:49;;;;;;;22.80;13.65;;;307.70;1510.40;;;;;;5087921;28;20021;-59
2021/01/06 10:43:42;;;;;;;24.65;13.70;;;307.60;1536.00;;;;;;5092160;28;20024;-52
2021/01/06 10:46:41;;;;;;;22.80;13.18;;;307.40;1638.40;;;;;;5093248;28;20036;-52
2021/01/06 10:49:19;;;;;;;21.30;12.90;;;307.50;1612.80;;;;;;5113978;28;20042;-52
2021/01/06 10:51:57;;;;;;;22.00;11.90;;;307.40;1664.00;;;;;;5111402;28;20071;-54
2021/01/06 10:54:52;;;;;;;19.95;12.05;;;282.50;1638.40;;;;;;5115793;28;20034;-53
2021/01/06 10:57:32;;;;;;;17.10;10.57;;;282.50;1638.40;;;;;;5118228;28;20491;-54
2021/01/06 11:00:10;;;;;;;17.33;11.20;;;;;;;;;;5107577;28;20476;-53
2021/01/06 11:02:42;;;;;;;15.73;10.55;;;282.30;1689.60;;;;;;5097588;28;20016;-53
2021/01/06 11:05:16;;;;;;;16.75;10.15;;;282.10;1689.60;;;;;;5095591;28;20047;-61
2021/01/06 11:08:16;;;;;;;19.30;12.43;;;282.10;1689.60;;;;;;5095559;28;20469;-51
2021/01/06 11:11:07;;;;;;;21.73;13.23;;;282.20;1715.20;;;;;;5032898;28;20072;-55
2021/01/06 11:13:57;;;;;;;17.50;12.27;;;282.00;1766.40;;;;;;5032619;28;20096;-52
2021/01/06 11:16:27;;;;;;;21.33;12.50;;;281.80;1792.00;;;;;;5033307;28;20100;-58
2021/01/06 11:18:56;;;;;;;19.67;12.63;;;256.80;1817.60;;;;;;5033230;28;20021;-53
2021/01/06 11:21:39;;;;;;;21.85;14.13;;;256.80;1868.80;;;;;;5032785;28;20045;-54
2021/01/06 11:24:39;;;;;;;17.35;12.40;;;256.70;1868.80;;;;;;5031749;28;20602;-56
2021/01/06 11:27:45;;;;;;;17.17;12.43;;;281.60;1868.80;;;;;;5022371;28;20041;-53
2021/01/06 11:30:25;;;;;;;17.50;12.43;;;281.80;1843.20;;;;;;5032283;28;20057;-52
2021/01/06 11:33:13;;;;;;;19.90;13.02;;;281.70;1843.20;;;;;;5031376;28;20049;-50
2021/01/06 11:36:16;;;;;;;16.53;12.50;;;281.60;1868.80;;;;;;5033000;28;20124;-52
2021/01/06 11:38:42;;;;;;;20.75;13.32;;;256.80;1920.00;;;;;;5031816;28;20370;-51
2021/01/06 11:41:08;;;;;;;19.17;12.38;;;256.80;1894.40;;;;;;5032925;28;20042;-51
2021/01/06 11:43:48;;;;;;;18.27;11.88;;;256.90;1868.80;;;;;;5032881;28;20021;-51
2021/01/06 11:46:26;;;;;;;15.43;10.77;;;281.70;1843.20;;;;;;5032412;28;20494;-52
2021/01/06 11:49:14;;;;;;;20.58;11.95;;;281.80;1817.60;;;;;;5085094;28;20043;-54
2021/01/06 11:52:01;;;;;;;17.70;12.30;;;281.90;1817.60;;;;;;5095995;28;20087;-51
2021/01/06 11:54:29;;;;;;;19.88;13.35;;;281.60;1843.20;;;;;;5096254;28;20082;-53
2021/01/06 11:57:10;;;;;;;20.67;14.32;;;281.60;1868.80;;;;;;5093272;28;20077;-52
2021/01/06 11:59:58;;;;;;;16.88;11.77;;;256.90;1817.60;;;;;;5113283;28;20381;-52
2021/01/06 12:02:28;;;;;;;20.60;13.70;;;256.80;1817.60;;;;;;5083427;28;20048;-51
2021/01/06 12:05:06;;;;;;;430.60;221.20;;;256.80;1843.20;;;;;;5090552;28;20439;-52
2021/01/06 12:08:11;;;;;;;175.52;110.65;;;256.60;1920.00;;;;;;5094323;28;20385;-52
2021/01/06 12:10:52;;;;;;;122.95;94.07;;;256.30;1945.60;;;;;;5091564;28;20036;-51
2021/01/06 12:13:22;;;;;;;27.42;18.17;;;256.20;1996.80;;;;;;5094622;28;20513;-55
2021/01/06 12:16:06;;;;;;;43.00;34.08;;;256.30;1945.60;;;;;;5109164;28;20031;-53
2021/01/06 12:18:42;;;;;;;21.52;14.43;;;256.20;1971.20;;;;;;5109097;28;20027;-60
2021/01/06 12:21:33;;;;;;;18.67;14.25;;;256.40;1920.00;;;;;;5094661;28;20099;-53
2021/01/06 12:24:28;;;;;;;22.13;15.15;;;256.60;1894.40;;;;;;5100864;28;20028;-53
2021/01/06 12:27:04;;;;;;;20.63;14.55;;;256.60;1971.20;;;;;;5112371;28;20022;-53
2021/01/06 12:29:53;;;;;;;21.70;15.85;;;256.50;1971.20;;;;;;5112183;28;20032;-53
2021/01/06 12:32:32;;;;;;;329.50;296.17;;;256.50;2022.40;;;;;;5011006;28;20030;-53
2021/01/06 12:35:19;;;;;;;25.48;19.38;;;256.20;1996.80;;;;;;5009868;28;20053;-52
2021/01/06 12:37:59;;;;;;;25.30;14.30;;;256.30;2022.40;;;;;;5010112;28;20117;-52
2021/01/06 12:40:26;;;;;;;25.27;14.90;;;256.40;1996.80;;;;;;5011288;28;20449;-53
2021/01/06 12:43:00;;;;;;;58.40;52.13;;;256.50;1971.20;;;;;;5011272;28;20043;-51
2021/01/06 12:45:28;;;;;;;22.85;18.58;;;256.10;2073.60;;;;;;5011265;28;20033;-65
2021/01/06 12:48:05;;;;;;;23.52;15.82;;;256.20;2099.20;;;;;;4995574;28;20026;-51
2021/01/06 12:50:49;;;;;;;21.42;15.45;;;256.40;2022.40;;;;;;4998350;28;20061;-54
2021/01/06 12:53:21;;;;;;;23.88;15.40;;;256.40;2048.00;;;;;;4991870;28;20046;-52